sensor_id;sensor_type;location;lat;lon;timestamp;P1;durP1;ratioP1;P2;durP2;ratioP2
59486;SDS011;45298;54.918;73.504;2024-01-25T00:01:36;2.30;;;2.17;;
59486;SDS011;45298;54.918;73.504;2024-01-25T00:04:04;1.13;;;1.13;;
59486;SDS011;45298;54.918;73.504;2024-01-25T00:06:33;3.45;;;1.63;;
59486;SDS011;45298;54.918;73.504;2024-01-25T00:09:03;3.53;;;1.92;;
59486;SDS011;45298;54.918;73.504;2024-01-25T00:11:34;2.25;;;2.05;;
59486;SDS011;45298;54.918;73.504;2024-01-25T00:14:03;2.80;;;2.60;;
59486;SDS011;45298;54.918;73.504;2024-01-25T00:16:32;4.68;;;4.28;;
59486;SDS011;45298;54.918;73.504;2024-01-25T00:19:01;5.65;;;2.08;;
59486;SDS011;45298;54.918;73.504;2024-01-25T00:21:30;3.22;;;1.88;;
59486;SDS011;45298;54.918;73.504;2024-01-25T00:24:01;2.00;;;1.90;;
59486;SDS011;45298;54.918;73.504;2024-01-25T00:26:30;12.77;;;3.45;;
59486;SDS011;45298;54.918;73.504;2024-01-25T00:28:59;1.77;;;1.67;;
59486;SDS011;45298;54.918;73.504;2024-01-25T00:31:27;2.20;;;2.10;;
59486;SDS011;45298;54.918;73.504;2024-01-25T00:33:59;7.05;;;6.10;;
59486;SDS011;45298;54.918;73.504;2024-01-25T00:36:29;7.73;;;3.67;;
59486;SDS011;45298;54.918;73.504;2024-01-25T00:38:58;3.50;;;3.20;;
59486;SDS011;45298;54.918;73.504;2024-01-25T00:41:27;12.65;;;8.23;;
59486;SDS011;45298;54.918;73.504;2024-01-25T00:44:00;20.87;;;13.77;;
59486;SDS011;45298;54.918;73.504;2024-01-25T00:46:29;21.98;;;8.30;;
59486;SDS011;45298;54.918;73.504;2024-01-25T00:48:58;12.77;;;9.98;;
59486;SDS011;45298;54.918;73.504;2024-01-25T00:51:27;29.60;;;17.23;;
59486;SDS011;45298;54.918;73.504;2024-01-25T00:53:57;36.13;;;19.20;;
59486;SDS011;45298;54.918;73.504;2024-01-25T00:56:26;6.05;;;5.45;;
59486;SDS011;45298;54.918;73.504;2024-01-25T00:58:55;7.82;;;5.00;;
59486;SDS011;45298;54.918;73.504;2024-01-25T01:01:24;6.75;;;5.15;;
59486;SDS011;45298;54.918;73.504;2024-01-25T01:03:54;12.05;;;10.32;;
59486;SDS011;45298;54.918;73.504;2024-01-25T01:06:26;20.63;;;8.43;;
59486;SDS011;45298;54.918;73.504;2024-01-25T01:08:55;11.25;;;8.10;;
59486;SDS011;45298;54.918;73.504;2024-01-25T01:11:24;11.48;;;10.45;;
59486;SDS011;45298;54.918;73.504;2024-01-25T01:13:53;16.67;;;10.85;;
59486;SDS011;45298;54.918;73.504;2024-01-25T01:16:21;18.00;;;10.15;;
59486;SDS011;45298;54.918;73.504;2024-01-25T01:18:50;9.88;;;8.07;;
59486;SDS011;45298;54.918;73.504;2024-01-25T01:21:19;31.08;;;15.40;;
59486;SDS011;45298;54.918;73.504;2024-01-25T01:23:49;33.05;;;16.63;;
59486;SDS011;45298;54.918;73.504;2024-01-25T01:26:18;40.05;;;23.40;;
59486;SDS011;45298;54.918;73.504;2024-01-25T01:28:46;43.17;;;23.92;;
59486;SDS011;45298;54.918;73.504;2024-01-25T01:31:18;21.90;;;13.45;;
59486;SDS011;45298;54.918;73.504;2024-01-25T01:33:47;34.67;;;16.50;;
59486;SDS011;45298;54.918;73.504;2024-01-25T01:36:16;68.75;;;31.23;;
59486;SDS011;45298;54.918;73.504;2024-01-25T01:38:45;42.03;;;25.60;;
59486;SDS011;45298;54.918;73.504;2024-01-25T01:41:14;26.05;;;13.95;;
59486;SDS011;45298;54.918;73.504;2024-01-25T01:43:42;25.65;;;12.30;;
59486;SDS011;45298;54.918;73.504;2024-01-25T01:46:12;19.27;;;10.43;;
59486;SDS011;45298;54.918;73.504;2024-01-25T01:48:51;39.20;;;16.90;;
59486;SDS011;45298;54.918;73.504;2024-01-25T01:51:20;35.03;;;12.30;;
59486;SDS011;45298;54.918;73.504;2024-01-25T01:53:49;14.55;;;10.43;;
59486;SDS011;45298;54.918;73.504;2024-01-25T01:56:18;9.75;;;8.77;;
59486;SDS011;45298;54.918;73.504;2024-01-25T01:58:48;26.50;;;9.02;;
59486;SDS011;45298;54.918;73.504;2024-01-25T02:01:17;44.03;;;12.02;;
59486;SDS011;45298;54.918;73.504;2024-01-25T02:03:47;7.18;;;4.80;;
59486;SDS011;45298;54.918;73.504;2024-01-25T02:06:16;5.68;;;5.20;;
59486;SDS011;45298;54.918;73.504;2024-01-25T02:08:46;6.57;;;3.92;;
59486;SDS011;45298;54.918;73.504;2024-01-25T02:11:17;8.90;;;6.05;;
59486;SDS011;45298;54.918;73.504;2024-01-25T02:13:45;7.35;;;5.85;;
59486;SDS011;45298;54.918;73.504;2024-01-25T02:16:15;15.55;;;9.27;;
59486;SDS011;45298;54.918;73.504;2024-01-25T02:18:46;12.93;;;3.78;;
59486;SDS011;45298;54.918;73.504;2024-01-25T02:21:16;8.10;;;6.20;;
59486;SDS011;45298;54.918;73.504;2024-01-25T02:23:44;9.85;;;6.03;;
59486;SDS011;45298;54.918;73.504;2024-01-25T02:26:13;6.97;;;5.18;;
59486;SDS011;45298;54.918;73.504;2024-01-25T02:28:42;10.93;;;3.85;;
59486;SDS011;45298;54.918;73.504;2024-01-25T02:31:11;5.25;;;3.85;;
59486;SDS011;45298;54.918;73.504;2024-01-25T02:33:40;2.53;;;2.33;;
59486;SDS011;45298;54.918;73.504;2024-01-25T02:36:09;4.75;;;3.72;;
59486;SDS011;45298;54.918;73.504;2024-01-25T02:38:38;10.30;;;5.78;;
59486;SDS011;45298;54.918;73.504;2024-01-25T02:41:06;4.95;;;2.25;;
59486;SDS011;45298;54.918;73.504;2024-01-25T02:43:35;4.57;;;2.88;;
59486;SDS011;45298;54.918;73.504;2024-01-25T02:46:04;1.40;;;1.30;;
59486;SDS011;45298;54.918;73.504;2024-01-25T02:48:32;2.60;;;2.42;;
59486;SDS011;45298;54.918;73.504;2024-01-25T02:51:02;2.40;;;2.28;;
59486;SDS011;45298;54.918;73.504;2024-01-25T02:53:33;1.67;;;1.58;;
59486;SDS011;45298;54.918;73.504;2024-01-25T02:56:02;1.02;;;1.02;;
59486;SDS011;45298;54.918;73.504;2024-01-25T02:58:31;1.70;;;1.60;;
59486;SDS011;45298;54.918;73.504;2024-01-25T03:01:00;3.28;;;3.00;;
59486;SDS011;45298;54.918;73.504;2024-01-25T03:03:28;1.65;;;1.55;;
59486;SDS011;45298;54.918;73.504;2024-01-25T03:05:57;12.40;;;3.40;;
59486;SDS011;45298;54.918;73.504;2024-01-25T03:08:26;10.48;;;3.83;;
59486;SDS011;45298;54.918;73.504;2024-01-25T03:10:56;2.53;;;2.20;;
59486;SDS011;45298;54.918;73.504;2024-01-25T03:13:25;2.15;;;2.00;;
59486;SDS011;45298;54.918;73.504;2024-01-25T03:15:53;2.78;;;2.55;;
59486;SDS011;45298;54.918;73.504;2024-01-25T03:18:22;1.85;;;1.75;;
59486;SDS011;45298;54.918;73.504;2024-01-25T03:20:51;1.33;;;1.23;;
59486;SDS011;45298;54.918;73.504;2024-01-25T03:23:20;3.00;;;2.80;;
59486;SDS011;45298;54.918;73.504;2024-01-25T03:25:49;10.85;;;3.95;;
59486;SDS011;45298;54.918;73.504;2024-01-25T03:28:20;1.50;;;1.40;;
59486;SDS011;45298;54.918;73.504;2024-01-25T03:30:49;14.30;;;4.55;;
59486;SDS011;45298;54.918;73.504;2024-01-25T03:33:18;3.05;;;2.75;;
59486;SDS011;45298;54.918;73.504;2024-01-25T03:35:47;2.05;;;1.92;;
59486;SDS011;45298;54.918;73.504;2024-01-25T03:38:16;1.38;;;1.33;;
59486;SDS011;45298;54.918;73.504;2024-01-25T03:40:44;1.77;;;1.67;;
59486;SDS011;45298;54.918;73.504;2024-01-25T03:43:13;2.60;;;2.40;;
59486;SDS011;45298;54.918;73.504;2024-01-25T03:45:51;7.30;;;4.05;;
59486;SDS011;45298;54.918;73.504;2024-01-25T03:48:19;1.83;;;1.25;;
59486;SDS011;45298;54.918;73.504;2024-01-25T03:50:49;1.80;;;1.70;;
59486;SDS011;45298;54.918;73.504;2024-01-25T03:53:18;2.03;;;1.85;;
59486;SDS011;45298;54.918;73.504;2024-01-25T03:55:47;1.08;;;1.08;;
59486;SDS011;45298;54.918;73.504;2024-01-25T03:58:17;1.52;;;1.45;;
59486;SDS011;45298;54.918;73.504;2024-01-25T04:00:46;7.03;;;5.35;;
59486;SDS011;45298;54.918;73.504;2024-01-25T04:03:15;4.00;;;3.65;;
59486;SDS011;45298;54.918;73.504;2024-01-25T04:05:44;1.85;;;1.75;;
59486;SDS011;45298;54.918;73.504;2024-01-25T04:08:13;4.03;;;3.08;;
59486;SDS011;45298;54.918;73.504;2024-01-25T04:10:42;3.22;;;2.85;;
59486;SDS011;45298;54.918;73.504;2024-01-25T04:13:11;2.90;;;2.65;;
59486;SDS011;45298;54.918;73.504;2024-01-25T04:15:40;2.33;;;2.20;;
59486;SDS011;45298;54.918;73.504;2024-01-25T04:18:08;8.20;;;5.97;;
59486;SDS011;45298;54.918;73.504;2024-01-25T04:20:38;6.25;;;5.25;;
59486;SDS011;45298;54.918;73.504;2024-01-25T04:23:07;9.70;;;6.00;;
59486;SDS011;45298;54.918;73.504;2024-01-25T04:25:36;7.93;;;4.95;;
59486;SDS011;45298;54.918;73.504;2024-01-25T04:28:05;3.72;;;3.17;;
59486;SDS011;45298;54.918;73.504;2024-01-25T04:30:34;6.70;;;4.85;;
59486;SDS011;45298;54.918;73.504;2024-01-25T04:33:03;2.78;;;2.47;;
59486;SDS011;45298;54.918;73.504;2024-01-25T04:35:32;6.63;;;6.03;;
59486;SDS011;45298;54.918;73.504;2024-01-25T04:38:02;5.45;;;2.25;;
59486;SDS011;45298;54.918;73.504;2024-01-25T04:40:30;3.53;;;2.70;;
59486;SDS011;45298;54.918;73.504;2024-01-25T04:42:59;1.40;;;1.33;;
59486;SDS011;45298;54.918;73.504;2024-01-25T04:45:28;11.88;;;3.47;;
59486;SDS011;45298;54.918;73.504;2024-01-25T04:48:00;6.32;;;5.05;;
59486;SDS011;45298;54.918;73.504;2024-01-25T04:50:29;10.10;;;2.90;;
59486;SDS011;45298;54.918;73.504;2024-01-25T04:52:58;6.05;;;2.75;;
59486;SDS011;45298;54.918;73.504;2024-01-25T04:55:29;4.78;;;4.30;;
59486;SDS011;45298;54.918;73.504;2024-01-25T04:57:58;1.65;;;1.55;;
59486;SDS011;45298;54.918;73.504;2024-01-25T05:00:27;4.63;;;2.92;;
59486;SDS011;45298;54.918;73.504;2024-01-25T05:02:56;2.03;;;1.88;;
59486;SDS011;45298;54.918;73.504;2024-01-25T05:05:24;4.68;;;2.88;;
59486;SDS011;45298;54.918;73.504;2024-01-25T05:07:53;17.13;;;3.35;;
59486;SDS011;45298;54.918;73.504;2024-01-25T05:10:22;3.70;;;2.47;;
59486;SDS011;45298;54.918;73.504;2024-01-25T05:12:53;8.05;;;2.72;;
59486;SDS011;45298;54.918;73.504;2024-01-25T05:15:22;20.27;;;2.50;;
59486;SDS011;45298;54.918;73.504;2024-01-25T05:17:51;30.00;;;4.72;;
59486;SDS011;45298;54.918;73.504;2024-01-25T05:20:20;3.67;;;3.20;;
59486;SDS011;45298;54.918;73.504;2024-01-25T05:22:48;15.70;;;4.15;;
59486;SDS011;45298;54.918;73.504;2024-01-25T05:25:17;19.90;;;5.50;;
59486;SDS011;45298;54.918;73.504;2024-01-25T05:27:46;10.00;;;5.22;;
59486;SDS011;45298;54.918;73.504;2024-01-25T05:30:15;2.05;;;1.95;;
59486;SDS011;45298;54.918;73.504;2024-01-25T05:32:45;2.63;;;2.42;;
59486;SDS011;45298;54.918;73.504;2024-01-25T05:35:17;1.90;;;1.55;;
59486;SDS011;45298;54.918;73.504;2024-01-25T05:37:46;1.52;;;1.42;;
59486;SDS011;45298;54.918;73.504;2024-01-25T05:40:15;1.40;;;1.30;;
59486;SDS011;45298;54.918;73.504;2024-01-25T05:42:44;7.30;;;3.25;;
59486;SDS011;45298;54.918;73.504;2024-01-25T05:45:13;6.32;;;3.35;;
59486;SDS011;45298;54.918;73.504;2024-01-25T05:47:42;10.88;;;5.05;;
59486;SDS011;45298;54.918;73.504;2024-01-25T05:50:12;2.13;;;2.00;;
59486;SDS011;45298;54.918;73.504;2024-01-25T05:52:44;1.83;;;1.73;;
59486;SDS011;45298;54.918;73.504;2024-01-25T05:55:13;27.00;;;3.22;;
59486;SDS011;45298;54.918;73.504;2024-01-25T05:57:43;1.08;;;1.02;;
59486;SDS011;45298;54.918;73.504;2024-01-25T06:00:14;3.92;;;3.55;;
59486;SDS011;45298;54.918;73.504;2024-01-25T06:02:47;4.18;;;3.30;;
59486;SDS011;45298;54.918;73.504;2024-01-25T06:05:17;2.75;;;2.30;;
59486;SDS011;45298;54.918;73.504;2024-01-25T06:07:47;1.15;;;1.10;;
59486;SDS011;45298;54.918;73.504;2024-01-25T06:10:18;3.05;;;1.75;;
59486;SDS011;45298;54.918;73.504;2024-01-25T06:12:47;11.38;;;1.75;;
59486;SDS011;45298;54.918;73.504;2024-01-25T06:15:16;0.95;;;0.95;;
59486;SDS011;45298;54.918;73.504;2024-01-25T06:17:45;1.67;;;1.50;;
59486;SDS011;45298;54.918;73.504;2024-01-25T06:20:14;2.58;;;2.10;;
59486;SDS011;45298;54.918;73.504;2024-01-25T06:22:43;2.15;;;1.27;;
59486;SDS011;45298;54.918;73.504;2024-01-25T06:25:12;17.42;;;2.10;;
59486;SDS011;45298;54.918;73.504;2024-01-25T06:27:41;2.15;;;1.77;;
59486;SDS011;45298;54.918;73.504;2024-01-25T06:30:10;1.23;;;1.13;;
59486;SDS011;45298;54.918;73.504;2024-01-25T06:32:39;0.60;;;0.60;;
59486;SDS011;45298;54.918;73.504;2024-01-25T06:35:08;2.78;;;1.65;;
59486;SDS011;45298;54.918;73.504;2024-01-25T06:37:37;7.53;;;2.45;;
59486;SDS011;45298;54.918;73.504;2024-01-25T06:40:07;1.83;;;0.85;;
59486;SDS011;45298;54.918;73.504;2024-01-25T06:42:36;2.92;;;1.45;;
59486;SDS011;45298;54.918;73.504;2024-01-25T06:45:05;2.58;;;2.33;;
59486;SDS011;45298;54.918;73.504;2024-01-25T06:47:33;3.83;;;2.20;;
59486;SDS011;45298;54.918;73.504;2024-01-25T06:50:02;5.30;;;2.88;;
59486;SDS011;45298;54.918;73.504;2024-01-25T06:52:32;1.85;;;1.73;;
59486;SDS011;45298;54.918;73.504;2024-01-25T06:55:01;12.00;;;4.32;;
59486;SDS011;45298;54.918;73.504;2024-01-25T06:57:30;3.33;;;1.85;;
59486;SDS011;45298;54.918;73.504;2024-01-25T06:59:59;2.78;;;2.42;;
59486;SDS011;45298;54.918;73.504;2024-01-25T07:02:28;11.35;;;2.10;;
59486;SDS011;45298;54.918;73.504;2024-01-25T07:04:59;6.32;;;3.55;;
59486;SDS011;45298;54.918;73.504;2024-01-25T07:07:30;1.42;;;0.93;;
59486;SDS011;45298;54.918;73.504;2024-01-25T07:10:00;0.77;;;0.77;;
59486;SDS011;45298;54.918;73.504;2024-01-25T07:12:29;0.85;;;0.85;;
59486;SDS011;45298;54.918;73.504;2024-01-25T07:14:58;3.35;;;1.67;;
59486;SDS011;45298;54.918;73.504;2024-01-25T07:17:27;11.20;;;3.53;;
59486;SDS011;45298;54.918;73.504;2024-01-25T07:19:56;6.25;;;4.35;;
59486;SDS011;45298;54.918;73.504;2024-01-25T07:22:25;6.88;;;3.10;;
59486;SDS011;45298;54.918;73.504;2024-01-25T07:24:54;23.58;;;2.92;;
59486;SDS011;45298;54.918;73.504;2024-01-25T07:27:23;2.47;;;2.17;;
59486;SDS011;45298;54.918;73.504;2024-01-25T07:29:51;3.35;;;2.10;;
59486;SDS011;45298;54.918;73.504;2024-01-25T07:32:20;3.35;;;1.60;;
59486;SDS011;45298;54.918;73.504;2024-01-25T07:34:49;4.65;;;1.95;;
59486;SDS011;45298;54.918;73.504;2024-01-25T07:37:18;1.95;;;1.85;;
59486;SDS011;45298;54.918;73.504;2024-01-25T07:39:48;11.85;;;2.90;;
59486;SDS011;45298;54.918;73.504;2024-01-25T07:42:17;8.23;;;2.15;;
59486;SDS011;45298;54.918;73.504;2024-01-25T07:44:48;3.85;;;2.40;;
59486;SDS011;45298;54.918;73.504;2024-01-25T07:47:17;22.73;;;6.05;;
59486;SDS011;45298;54.918;73.504;2024-01-25T07:49:46;1.73;;;1.63;;
59486;SDS011;45298;54.918;73.504;2024-01-25T07:52:19;3.70;;;2.78;;
59486;SDS011;45298;54.918;73.504;2024-01-25T07:54:51;3.95;;;3.53;;
59486;SDS011;45298;54.918;73.504;2024-01-25T07:57:21;2.80;;;2.08;;
59486;SDS011;45298;54.918;73.504;2024-01-25T07:59:50;12.80;;;3.75;;
59486;SDS011;45298;54.918;73.504;2024-01-25T08:02:19;2.88;;;2.42;;
59486;SDS011;45298;54.918;73.504;2024-01-25T08:04:48;1.25;;;1.17;;
59486;SDS011;45298;54.918;73.504;2024-01-25T08:07:17;14.60;;;4.50;;
59486;SDS011;45298;54.918;73.504;2024-01-25T08:09:46;6.72;;;3.08;;
59486;SDS011;45298;54.918;73.504;2024-01-25T08:12:15;0.98;;;0.95;;
59486;SDS011;45298;54.918;73.504;2024-01-25T08:14:44;5.43;;;2.40;;
59486;SDS011;45298;54.918;73.504;2024-01-25T08:17:13;3.60;;;2.15;;
59486;SDS011;45298;54.918;73.504;2024-01-25T08:19:42;6.43;;;3.97;;
59486;SDS011;45298;54.918;73.504;2024-01-25T08:22:10;4.65;;;3.03;;
59486;SDS011;45298;54.918;73.504;2024-01-25T08:24:40;4.95;;;3.55;;
59486;SDS011;45298;54.918;73.504;2024-01-25T08:27:09;10.13;;;1.80;;
59486;SDS011;45298;54.918;73.504;2024-01-25T08:29:40;3.22;;;2.42;;
59486;SDS011;45298;54.918;73.504;2024-01-25T08:32:09;1.58;;;1.48;;
59486;SDS011;45298;54.918;73.504;2024-01-25T08:34:38;1.35;;;1.20;;
59486;SDS011;45298;54.918;73.504;2024-01-25T08:37:07;2.50;;;1.00;;
59486;SDS011;45298;54.918;73.504;2024-01-25T08:39:36;1.58;;;1.35;;
59486;SDS011;45298;54.918;73.504;2024-01-25T08:42:05;1.45;;;1.35;;
59486;SDS011;45298;54.918;73.504;2024-01-25T08:44:34;0.88;;;0.63;;
59486;SDS011;45298;54.918;73.504;2024-01-25T08:47:03;3.80;;;2.63;;
59486;SDS011;45298;54.918;73.504;2024-01-25T08:49:32;3.97;;;3.30;;
59486;SDS011;45298;54.918;73.504;2024-01-25T08:52:00;4.03;;;1.75;;
59486;SDS011;45298;54.918;73.504;2024-01-25T08:54:29;1.10;;;1.00;;
59486;SDS011;45298;54.918;73.504;2024-01-25T08:56:58;1.58;;;1.48;;
59486;SDS011;45298;54.918;73.504;2024-01-25T08:59:27;0.90;;;0.88;;
59486;SDS011;45298;54.918;73.504;2024-01-25T09:01:57;2.50;;;0.95;;
59486;SDS011;45298;54.918;73.504;2024-01-25T09:04:27;0.70;;;0.70;;
59486;SDS011;45298;54.918;73.504;2024-01-25T09:06:56;1.13;;;1.08;;
59486;SDS011;45298;54.918;73.504;2024-01-25T09:09:25;1.55;;;1.45;;
59486;SDS011;45298;54.918;73.504;2024-01-25T09:11:54;20.00;;;3.40;;
59486;SDS011;45298;54.918;73.504;2024-01-25T09:14:23;2.10;;;1.92;;
59486;SDS011;45298;54.918;73.504;2024-01-25T09:16:52;0.90;;;0.90;;
59486;SDS011;45298;54.918;73.504;2024-01-25T09:19:20;8.77;;;2.45;;
59486;SDS011;45298;54.918;73.504;2024-01-25T09:21:49;1.52;;;1.42;;
59486;SDS011;45298;54.918;73.504;2024-01-25T09:24:19;1.13;;;1.00;;
59486;SDS011;45298;54.918;73.504;2024-01-25T09:26:48;2.17;;;2.05;;
59486;SDS011;45298;54.918;73.504;2024-01-25T09:29:17;1.58;;;1.23;;
59486;SDS011;45298;54.918;73.504;2024-01-25T09:31:45;3.22;;;1.52;;
59486;SDS011;45298;54.918;73.504;2024-01-25T09:34:14;10.15;;;2.67;;
59486;SDS011;45298;54.918;73.504;2024-01-25T09:36:44;5.13;;;2.35;;
59486;SDS011;45298;54.918;73.504;2024-01-25T09:39:14;4.18;;;2.47;;
59486;SDS011;45298;54.918;73.504;2024-01-25T09:41:43;1.15;;;1.15;;
59486;SDS011;45298;54.918;73.504;2024-01-25T09:44:13;2.15;;;1.52;;
59486;SDS011;45298;54.918;73.504;2024-01-25T09:46:42;5.72;;;2.70;;
59486;SDS011;45298;54.918;73.504;2024-01-25T09:49:13;2.70;;;1.55;;
59486;SDS011;45298;54.918;73.504;2024-01-25T09:51:43;17.67;;;3.20;;
59486;SDS011;45298;54.918;73.504;2024-01-25T09:54:12;2.80;;;1.98;;
59486;SDS011;45298;54.918;73.504;2024-01-25T09:56:42;3.00;;;2.22;;
59486;SDS011;45298;54.918;73.504;2024-01-25T09:59:11;2.22;;;1.83;;
59486;SDS011;45298;54.918;73.504;2024-01-25T10:01:40;1.55;;;1.35;;
59486;SDS011;45298;54.918;73.504;2024-01-25T10:04:09;1.75;;;1.63;;
59486;SDS011;45298;54.918;73.504;2024-01-25T10:06:38;9.75;;;2.80;;
59486;SDS011;45298;54.918;73.504;2024-01-25T10:09:07;1.17;;;1.08;;
59486;SDS011;45298;54.918;73.504;2024-01-25T10:11:37;1.90;;;1.55;;
59486;SDS011;45298;54.918;73.504;2024-01-25T10:14:13;4.65;;;1.83;;
59486;SDS011;45298;54.918;73.504;2024-01-25T10:16:42;3.45;;;1.30;;
59486;SDS011;45298;54.918;73.504;2024-01-25T10:19:11;1.58;;;1.23;;
59486;SDS011;45298;54.918;73.504;2024-01-25T10:21:41;1.63;;;1.38;;
59486;SDS011;45298;54.918;73.504;2024-01-25T10:24:11;5.00;;;4.00;;
59486;SDS011;45298;54.918;73.504;2024-01-25T10:26:41;7.78;;;3.70;;
59486;SDS011;45298;54.918;73.504;2024-01-25T10:29:14;4.82;;;2.35;;
59486;SDS011;45298;54.918;73.504;2024-01-25T10:31:43;7.90;;;2.53;;
59486;SDS011;45298;54.918;73.504;2024-01-25T10:34:13;2.15;;;1.88;;
59486;SDS011;45298;54.918;73.504;2024-01-25T10:36:44;3.63;;;3.15;;
59486;SDS011;45298;54.918;73.504;2024-01-25T10:39:13;4.32;;;3.15;;
59486;SDS011;45298;54.918;73.504;2024-01-25T10:41:42;2.50;;;1.58;;
59486;SDS011;45298;54.918;73.504;2024-01-25T10:44:19;7.80;;;2.65;;
59486;SDS011;45298;54.918;73.504;2024-01-25T10:46:48;1.00;;;1.00;;
59486;SDS011;45298;54.918;73.504;2024-01-25T10:49:18;5.88;;;1.67;;
59486;SDS011;45298;54.918;73.504;2024-01-25T10:51:47;1.50;;;1.40;;
59486;SDS011;45298;54.918;73.504;2024-01-25T10:54:17;1.33;;;1.23;;
59486;SDS011;45298;54.918;73.504;2024-01-25T10:56:47;9.15;;;3.30;;
59486;SDS011;45298;54.918;73.504;2024-01-25T10:59:15;2.70;;;1.88;;
59486;SDS011;45298;54.918;73.504;2024-01-25T11:01:46;10.90;;;4.05;;
59486;SDS011;45298;54.918;73.504;2024-01-25T11:04:17;1.88;;;1.42;;
59486;SDS011;45298;54.918;73.504;2024-01-25T11:06:47;4.80;;;2.38;;
59486;SDS011;45298;54.918;73.504;2024-01-25T11:09:20;1.98;;;1.02;;
59486;SDS011;45298;54.918;73.504;2024-01-25T11:11:49;3.10;;;1.65;;
59486;SDS011;45298;54.918;73.504;2024-01-25T11:14:25;2.85;;;2.35;;
59486;SDS011;45298;54.918;73.504;2024-01-25T11:16:54;3.00;;;1.48;;
59486;SDS011;45298;54.918;73.504;2024-01-25T11:19:23;4.15;;;2.83;;
59486;SDS011;45298;54.918;73.504;2024-01-25T11:21:52;2.85;;;2.38;;
59486;SDS011;45298;54.918;73.504;2024-01-25T11:24:22;1.27;;;1.17;;
59486;SDS011;45298;54.918;73.504;2024-01-25T11:26:54;3.10;;;1.50;;
59486;SDS011;45298;54.918;73.504;2024-01-25T11:29:23;1.45;;;1.35;;
59486;SDS011;45298;54.918;73.504;2024-01-25T11:31:52;3.83;;;2.42;;
59486;SDS011;45298;54.918;73.504;2024-01-25T11:34:21;4.35;;;2.15;;
59486;SDS011;45298;54.918;73.504;2024-01-25T11:36:51;3.08;;;2.70;;
59486;SDS011;45298;54.918;73.504;2024-01-25T11:39:20;0.50;;;0.50;;
59486;SDS011;45298;54.918;73.504;2024-01-25T11:41:50;2.95;;;2.35;;
59486;SDS011;45298;54.918;73.504;2024-01-25T11:44:20;2.78;;;2.10;;
59486;SDS011;45298;54.918;73.504;2024-01-25T11:46:53;1.83;;;1.73;;
59486;SDS011;45298;54.918;73.504;2024-01-25T11:49:24;2.35;;;2.15;;
59486;SDS011;45298;54.918;73.504;2024-01-25T11:51:54;2.50;;;1.20;;
59486;SDS011;45298;54.918;73.504;2024-01-25T11:54:22;1.50;;;0.82;;
59486;SDS011;45298;54.918;73.504;2024-01-25T11:56:51;6.30;;;3.45;;
59486;SDS011;45298;54.918;73.504;2024-01-25T11:59:22;2.63;;;2.42;;
59486;SDS011;45298;54.918;73.504;2024-01-25T12:01:51;1.92;;;1.52;;
59486;SDS011;45298;54.918;73.504;2024-01-25T12:04:21;1.45;;;1.30;;
59486;SDS011;45298;54.918;73.504;2024-01-25T12:06:49;2.65;;;2.25;;
59486;SDS011;45298;54.918;73.504;2024-01-25T12:09:19;4.35;;;2.90;;
59486;SDS011;45298;54.918;73.504;2024-01-25T12:11:51;1.45;;;1.35;;
59486;SDS011;45298;54.918;73.504;2024-01-25T12:14:20;3.17;;;1.60;;
59486;SDS011;45298;54.918;73.504;2024-01-25T12:16:49;4.55;;;1.70;;
59486;SDS011;45298;54.918;73.504;2024-01-25T12:19:18;5.25;;;1.80;;
59486;SDS011;45298;54.918;73.504;2024-01-25T12:21:50;36.50;;;3.38;;
59486;SDS011;45298;54.918;73.504;2024-01-25T12:24:20;7.90;;;2.67;;
59486;SDS011;45298;54.918;73.504;2024-01-25T12:26:48;6.53;;;2.92;;
59486;SDS011;45298;54.918;73.504;2024-01-25T12:29:19;2.67;;;2.28;;
59486;SDS011;45298;54.918;73.504;2024-01-25T12:31:48;5.20;;;3.55;;
59486;SDS011;45298;54.918;73.504;2024-01-25T12:34:17;1.20;;;1.13;;
59486;SDS011;45298;54.918;73.504;2024-01-25T12:36:46;1.95;;;1.10;;
59486;SDS011;45298;54.918;73.504;2024-01-25T12:39:15;15.88;;;3.53;;
59486;SDS011;45298;54.918;73.504;2024-01-25T12:41:47;4.20;;;1.42;;
59486;SDS011;45298;54.918;73.504;2024-01-25T12:44:18;9.07;;;4.65;;
59486;SDS011;45298;54.918;73.504;2024-01-25T12:46:47;1.73;;;1.63;;
59486;SDS011;45298;54.918;73.504;2024-01-25T12:49:16;12.98;;;4.63;;
59486;SDS011;45298;54.918;73.504;2024-01-25T12:51:46;4.22;;;1.52;;
59486;SDS011;45298;54.918;73.504;2024-01-25T12:54:17;3.13;;;2.13;;
59486;SDS011;45298;54.918;73.504;2024-01-25T12:56:47;1.60;;;1.50;;
59486;SDS011;45298;54.918;73.504;2024-01-25T12:59:18;1.35;;;1.25;;
59486;SDS011;45298;54.918;73.504;2024-01-25T13:01:47;4.47;;;2.25;;
59486;SDS011;45298;54.918;73.504;2024-01-25T13:04:17;1.60;;;1.38;;
59486;SDS011;45298;54.918;73.504;2024-01-25T13:06:46;5.18;;;2.38;;
59486;SDS011;45298;54.918;73.504;2024-01-25T13:09:16;4.15;;;2.42;;
59486;SDS011;45298;54.918;73.504;2024-01-25T13:11:45;1.67;;;1.35;;
59486;SDS011;45298;54.918;73.504;2024-01-25T13:14:15;6.82;;;2.75;;
59486;SDS011;45298;54.918;73.504;2024-01-25T13:16:44;5.47;;;1.58;;
59486;SDS011;45298;54.918;73.504;2024-01-25T13:19:13;1.23;;;1.13;;
59486;SDS011;45298;54.918;73.504;2024-01-25T13:21:42;22.75;;;1.40;;
59486;SDS011;45298;54.918;73.504;2024-01-25T13:24:11;0.88;;;0.88;;
59486;SDS011;45298;54.918;73.504;2024-01-25T13:26:40;2.25;;;1.95;;
59486;SDS011;45298;54.918;73.504;2024-01-25T13:29:09;2.05;;;1.45;;
59486;SDS011;45298;54.918;73.504;2024-01-25T13:31:40;2.22;;;1.33;;
59486;SDS011;45298;54.918;73.504;2024-01-25T13:34:10;1.77;;;1.55;;
59486;SDS011;45298;54.918;73.504;2024-01-25T13:36:38;3.35;;;2.22;;
59486;SDS011;45298;54.918;73.504;2024-01-25T13:39:07;8.38;;;4.00;;
59486;SDS011;45298;54.918;73.504;2024-01-25T13:41:38;4.10;;;2.85;;
59486;SDS011;45298;54.918;73.504;2024-01-25T13:44:07;5.32;;;2.58;;
59486;SDS011;45298;54.918;73.504;2024-01-25T13:46:36;1.52;;;1.42;;
59486;SDS011;45298;54.918;73.504;2024-01-25T13:49:04;6.13;;;2.83;;
59486;SDS011;45298;54.918;73.504;2024-01-25T13:51:34;35.08;;;3.25;;
59486;SDS011;45298;54.918;73.504;2024-01-25T13:54:03;27.85;;;5.07;;
59486;SDS011;45298;54.918;73.504;2024-01-25T13:56:32;2.10;;;2.00;;
59486;SDS011;45298;54.918;73.504;2024-01-25T13:59:00;2.97;;;2.00;;
59486;SDS011;45298;54.918;73.504;2024-01-25T14:01:29;7.97;;;3.78;;
59486;SDS011;45298;54.918;73.504;2024-01-25T14:03:58;2.97;;;2.42;;
59486;SDS011;45298;54.918;73.504;2024-01-25T14:06:27;9.95;;;4.03;;
59486;SDS011;45298;54.918;73.504;2024-01-25T14:08:56;3.03;;;2.00;;
59486;SDS011;45298;54.918;73.504;2024-01-25T14:11:25;7.20;;;2.33;;
59486;SDS011;45298;54.918;73.504;2024-01-25T14:13:54;7.00;;;3.65;;
59486;SDS011;45298;54.918;73.504;2024-01-25T14:16:23;6.07;;;2.75;;
59486;SDS011;45298;54.918;73.504;2024-01-25T14:18:52;12.00;;;4.50;;
59486;SDS011;45298;54.918;73.504;2024-01-25T14:21:22;12.60;;;4.55;;
59486;SDS011;45298;54.918;73.504;2024-01-25T14:23:50;2.28;;;2.08;;
59486;SDS011;45298;54.918;73.504;2024-01-25T14:26:19;3.08;;;2.65;;
59486;SDS011;45298;54.918;73.504;2024-01-25T14:28:48;12.55;;;2.80;;
59486;SDS011;45298;54.918;73.504;2024-01-25T14:31:18;1.98;;;1.77;;
59486;SDS011;45298;54.918;73.504;2024-01-25T14:33:47;2.42;;;2.10;;
59486;SDS011;45298;54.918;73.504;2024-01-25T14:36:16;2.00;;;1.83;;
59486;SDS011;45298;54.918;73.504;2024-01-25T14:38:45;7.22;;;2.45;;
59486;SDS011;45298;54.918;73.504;2024-01-25T14:41:14;0.93;;;0.93;;
59486;SDS011;45298;54.918;73.504;2024-01-25T14:43:43;3.30;;;2.25;;